Ashton, Nebraska
Current Conditions -  °F | °C
As of 11:53 AM on Sunday 23 Nov 2014 (Local Time) from KODX Reporting Station
Clear Clear  
Wind Chill: 35°   Ceiling: Unl
Heat Index: 44°   Visibility: 10mi
Dew Point: 27°   Wind: 26mph
Humidity: 51%   Direction: 340°NNW
Pressure: 29.62"   Gusts: 40mph
Location:  41.25°N, 98.79°W
Report Text: KODX 231753Z AUTO 34023G35KT 10SM CLR 07/M03 A2962 RMK AO2 PK WND 36035/1753 SLP040 60000 T00671028 10067 20056 58001
Loading
Personal Weather Stations






























Interactive Weather Map New forecast layout! Learn more

10-Day Weather Forecast

Advertisements
Track Severe Weather on mobile